sensor_id;sensor_type;location;lat;lon;timestamp;pressure;altitude;pressure_sealevel;temperature;humidity
69171;BME280;56279;47.902;12.308;2023-03-21T00:01:04;95618.69;;;9.11;80.82
69171;BME280;56279;47.902;12.308;2023-03-21T00:03:06;95613.69;;;9.10;80.85
69171;BME280;56279;47.902;12.308;2023-03-21T00:05:08;95612.09;;;9.09;80.54
69171;BME280;56279;47.902;12.308;2023-03-21T00:07:09;95608.13;;;9.06;80.43
69171;BME280;56279;47.902;12.308;2023-03-21T00:09:10;95607.34;;;9.05;80.84
69171;BME280;56279;47.902;12.308;2023-03-21T00:11:12;95605.78;;;9.04;80.73
69171;BME280;56279;47.902;12.308;2023-03-21T00:13:14;95609.44;;;9.03;80.82
69171;BME280;56279;47.902;12.308;2023-03-21T00:15:16;95603.41;;;9.03;81.25
69171;BME280;56279;47.902;12.308;2023-03-21T00:17:18;95608.41;;;9.04;81.44
69171;BME280;56279;47.902;12.308;2023-03-21T00:19:22;95609.72;;;9.02;80.96
69171;BME280;56279;47.902;12.308;2023-03-21T00:21:26;95601.03;;;9.01;81.46
69171;BME280;56279;47.902;12.308;2023-03-21T00:23:32;95596.56;;;9.02;81.39
69171;BME280;56279;47.902;12.308;2023-03-21T00:25:33;95593.91;;;9.02;81.28
69171;BME280;56279;47.902;12.308;2023-03-21T00:27:35;95590.75;;;9.00;81.41
69171;BME280;56279;47.902;12.308;2023-03-21T00:29:37;95588.91;;;9.00;81.66
69171;BME280;56279;47.902;12.308;2023-03-21T00:31:38;95581.03;;;9.00;81.81
69171;BME280;56279;47.902;12.308;2023-03-21T00:33:39;95588.38;;;8.98;81.42
69171;BME280;56279;47.902;12.308;2023-03-21T00:35:41;95591.00;;;8.98;81.58
69171;BME280;56279;47.902;12.308;2023-03-21T00:37:48;95590.47;;;8.96;81.57
69171;BME280;56279;47.902;12.308;2023-03-21T00:39:49;95585.47;;;8.95;81.46
69171;BME280;56279;47.902;12.308;2023-03-21T00:41:53;95586.50;;;8.94;81.55
69171;BME280;56279;47.902;12.308;2023-03-21T00:43:54;95583.88;;;8.94;81.43
69171;BME280;56279;47.902;12.308;2023-03-21T00:45:56;95580.47;;;8.93;81.35
69171;BME280;56279;47.902;12.308;2023-03-21T00:48:00;95575.22;;;8.93;81.40
69171;BME280;56279;47.902;12.308;2023-03-21T00:50:03;95574.41;;;8.93;82.04
69171;BME280;56279;47.902;12.308;2023-03-21T00:52:07;95575.47;;;8.92;81.84
69171;BME280;56279;47.902;12.308;2023-03-21T00:54:11;95573.63;;;8.92;81.67
69171;BME280;56279;47.902;12.308;2023-03-21T00:56:12;95577.06;;;8.93;81.66
69171;BME280;56279;47.902;12.308;2023-03-21T00:58:14;95570.47;;;8.90;81.83
69171;BME280;56279;47.902;12.308;2023-03-21T01:00:16;95569.94;;;8.88;81.50
69171;BME280;56279;47.902;12.308;2023-03-21T01:02:18;95564.38;;;8.85;81.75
69171;BME280;56279;47.902;12.308;2023-03-21T01:04:22;95567.56;;;8.82;81.91
69171;BME280;56279;47.902;12.308;2023-03-21T01:06:26;95556.47;;;8.80;82.11
69171;BME280;56279;47.902;12.308;2023-03-21T01:08:29;95561.22;;;8.78;81.77
69171;BME280;56279;47.902;12.308;2023-03-21T01:10:30;95561.47;;;8.76;82.32
69171;BME280;56279;47.902;12.308;2023-03-21T01:12:32;95557.53;;;8.74;81.98
69171;BME280;56279;47.902;12.308;2023-03-21T01:14:33;95561.19;;;8.73;82.10
69171;BME280;56279;47.902;12.308;2023-03-21T01:16:35;95555.41;;;8.71;82.29
69171;BME280;56279;47.902;12.308;2023-03-21T01:18:37;95561.72;;;8.70;81.99
69171;BME280;56279;47.902;12.308;2023-03-21T01:20:40;95551.44;;;8.68;82.21
69171;BME280;56279;47.902;12.308;2023-03-21T01:22:41;95560.13;;;8.69;82.36
69171;BME280;56279;47.902;12.308;2023-03-21T01:24:42;95553.31;;;8.68;82.68
69171;BME280;56279;47.902;12.308;2023-03-21T01:26:44;95552.78;;;8.66;82.53
69171;BME280;56279;47.902;12.308;2023-03-21T01:28:45;95555.41;;;8.66;83.03
69171;BME280;56279;47.902;12.308;2023-03-21T01:30:48;95558.28;;;8.64;82.89
69171;BME280;56279;47.902;12.308;2023-03-21T01:32:50;95561.19;;;8.63;83.15
69171;BME280;56279;47.902;12.308;2023-03-21T01:34:51;95549.06;;;8.62;82.99
69171;BME280;56279;47.902;12.308;2023-03-21T01:36:55;95551.97;;;8.60;82.82
69171;BME280;56279;47.902;12.308;2023-03-21T01:38:56;95550.13;;;8.61;83.32
69171;BME280;56279;47.902;12.308;2023-03-21T01:40:59;95557.22;;;8.60;83.51
69171;BME280;56279;47.902;12.308;2023-03-21T01:43:30;95555.09;;;8.57;83.35
69171;BME280;56279;47.902;12.308;2023-03-21T01:48:12;95545.66;;;8.56;83.24
69171;BME280;56279;47.902;12.308;2023-03-21T01:50:24;95541.41;;;8.55;83.16
69171;BME280;56279;47.902;12.308;2023-03-21T01:52:49;95538.00;;;8.55;83.63
69171;BME280;56279;47.902;12.308;2023-03-21T01:54:58;95535.63;;;8.53;83.39
69171;BME280;56279;47.902;12.308;2023-03-21T01:57:06;95534.84;;;8.53;83.38
69171;BME280;56279;47.902;12.308;2023-03-21T01:59:13;95540.09;;;8.53;83.58
69171;BME280;56279;47.902;12.308;2023-03-21T02:01:58;95534.31;;;8.51;83.51
69171;BME280;56279;47.902;12.308;2023-03-21T02:04:01;95531.66;;;8.51;83.94
69171;BME280;56279;47.902;12.308;2023-03-21T02:06:43;95527.72;;;8.48;83.32
69171;BME280;56279;47.902;12.308;2023-03-21T02:09:02;95523.25;;;8.49;83.81
69171;BME280;56279;47.902;12.308;2023-03-21T02:11:06;95528.50;;;8.49;83.78
69171;BME280;56279;47.902;12.308;2023-03-21T02:13:14;95525.09;;;8.48;84.22
69171;BME280;56279;47.902;12.308;2023-03-21T02:15:17;95526.13;;;8.47;84.15
69171;BME280;56279;47.902;12.308;2023-03-21T02:17:58;95523.22;;;8.44;84.11
69171;BME280;56279;47.902;12.308;2023-03-21T02:24:59;95519.00;;;8.43;84.37
69171;BME280;56279;47.902;12.308;2023-03-21T02:32:03;95512.19;;;8.42;83.88
69171;BME280;56279;47.902;12.308;2023-03-21T02:39:20;95512.19;;;8.42;84.13
69171;BME280;56279;47.902;12.308;2023-03-21T02:41:41;95505.34;;;8.41;84.19
69171;BME280;56279;47.902;12.308;2023-03-21T02:44:05;95502.16;;;8.39;84.38
69171;BME280;56279;47.902;12.308;2023-03-21T02:46:18;95501.38;;;8.38;84.23
69171;BME280;56279;47.902;12.308;2023-03-21T02:48:30;95500.59;;;8.38;84.52
69171;BME280;56279;47.902;12.308;2023-03-21T02:50:42;95491.41;;;8.35;84.68
69171;BME280;56279;47.902;12.308;2023-03-21T02:52:48;95490.31;;;8.36;84.34
69171;BME280;56279;47.902;12.308;2023-03-21T02:54:50;95494.03;;;8.35;84.55
69171;BME280;56279;47.902;12.308;2023-03-21T02:56:58;95492.44;;;8.34;84.96
69171;BME280;56279;47.902;12.308;2023-03-21T02:59:02;95489.00;;;8.33;84.78
69171;BME280;56279;47.902;12.308;2023-03-21T03:01:04;95501.13;;;8.34;84.87
69171;BME280;56279;47.902;12.308;2023-03-21T03:03:13;95496.88;;;8.33;84.86
69171;BME280;56279;47.902;12.308;2023-03-21T03:05:24;95497.97;;;8.32;85.00
69171;BME280;56279;47.902;12.308;2023-03-21T03:20:04;95495.84;;;8.29;84.24
69171;BME280;56279;47.902;12.308;2023-03-21T03:22:14;95489.53;;;8.30;84.46
69171;BME280;56279;47.902;12.308;2023-03-21T03:24:25;95491.38;;;8.30;84.49
69171;BME280;56279;47.902;12.308;2023-03-21T03:28:36;95495.56;;;8.31;84.62
69171;BME280;56279;47.902;12.308;2023-03-21T03:30:45;95493.72;;;8.31;84.48
69171;BME280;56279;47.902;12.308;2023-03-21T03:32:53;95492.94;;;8.31;84.63
69171;BME280;56279;47.902;12.308;2023-03-21T03:34:56;95497.97;;;8.32;84.53
69171;BME280;56279;47.902;12.308;2023-03-21T03:37:05;95495.31;;;8.32;85.03
69171;BME280;56279;47.902;12.308;2023-03-21T03:39:11;95486.91;;;8.30;84.66
69171;BME280;56279;47.902;12.308;2023-03-21T03:41:20;95499.00;;;8.31;84.51
69171;BME280;56279;47.902;12.308;2023-03-21T03:43:34;95489.53;;;8.30;84.82
69171;BME280;56279;47.902;12.308;2023-03-21T03:45:47;95492.41;;;8.29;84.87
69171;BME280;56279;47.902;12.308;2023-03-21T03:49:00;95490.06;;;8.27;84.53
69171;BME280;56279;47.902;12.308;2023-03-21T03:50:48;95492.69;;;8.27;84.72
69171;BME280;56279;47.902;12.308;2023-03-21T03:53:00;95492.41;;;8.29;84.76
69171;BME280;56279;47.902;12.308;2023-03-21T03:55:04;95490.56;;;8.29;84.97
69171;BME280;56279;47.902;12.308;2023-03-21T03:57:11;95494.25;;;8.28;84.72
69171;BME280;56279;47.902;12.308;2023-03-21T03:59:15;95489.78;;;8.29;85.20
69171;BME280;56279;47.902;12.308;2023-03-21T04:01:38;95495.84;;;8.29;84.84
69171;BME280;56279;47.902;12.308;2023-03-21T04:03:40;95492.41;;;8.29;85.09
69171;BME280;56279;47.902;12.308;2023-03-21T04:05:43;95486.13;;;8.30;85.03
69171;BME280;56279;47.902;12.308;2023-03-21T04:07:48;95494.00;;;8.30;85.18
69171;BME280;56279;47.902;12.308;2023-03-21T04:09:59;95490.56;;;8.29;84.48
69171;BME280;56279;47.902;12.308;2023-03-21T04:12:01;95492.41;;;8.29;84.69
69171;BME280;56279;47.902;12.308;2023-03-21T04:14:04;95483.72;;;8.28;84.55
69171;BME280;56279;47.902;12.308;2023-03-21T04:16:06;95488.97;;;8.28;84.87
69171;BME280;56279;47.902;12.308;2023-03-21T04:18:07;95479.53;;;8.27;84.88
69171;BME280;56279;47.902;12.308;2023-03-21T04:20:09;95486.06;;;8.25;85.07
69171;BME280;56279;47.902;12.308;2023-03-21T04:22:11;95482.91;;;8.23;85.08
69171;BME280;56279;47.902;12.308;2023-03-21T04:24:16;95485.00;;;8.21;84.99
69171;BME280;56279;47.902;12.308;2023-03-21T04:26:19;95491.56;;;8.18;85.00
69171;BME280;56279;47.902;12.308;2023-03-21T04:28:36;95487.06;;;8.14;85.55
69171;BME280;56279;47.902;12.308;2023-03-21T04:31:02;95489.41;;;8.10;85.34
69171;BME280;56279;47.902;12.308;2023-03-21T04:33:06;95486.53;;;8.07;85.68
69171;BME280;56279;47.902;12.308;2023-03-21T04:35:09;95488.63;;;8.05;85.07
69171;BME280;56279;47.902;12.308;2023-03-21T04:37:12;95494.13;;;8.03;85.26
69171;BME280;56279;47.902;12.308;2023-03-21T04:39:15;95495.41;;;8.01;85.24
69171;BME280;56279;47.902;12.308;2023-03-21T04:41:20;95494.09;;;7.98;85.85
69171;BME280;56279;47.902;12.308;2023-03-21T04:43:23;95495.94;;;7.98;85.84
69171;BME280;56279;47.902;12.308;2023-03-21T04:45:24;95496.19;;;7.96;85.69
69171;BME280;56279;47.902;12.308;2023-03-21T04:47:26;95499.06;;;7.95;86.01
69171;BME280;56279;47.902;12.308;2023-03-21T04:49:29;95495.66;;;7.94;85.84
69171;BME280;56279;47.902;12.308;2023-03-21T04:51:31;95489.88;;;7.92;86.15
69171;BME280;56279;47.902;12.308;2023-03-21T04:53:32;95494.84;;;7.94;86.31
69171;BME280;56279;47.902;12.308;2023-03-21T04:55:33;95489.59;;;7.94;85.88
69171;BME280;56279;47.902;12.308;2023-03-21T04:57:37;95486.47;;;7.97;86.48
69171;BME280;56279;47.902;12.308;2023-03-21T04:59:38;95485.44;;;7.98;86.10
69171;BME280;56279;47.902;12.308;2023-03-21T05:01:40;95484.91;;;8.01;86.31
69171;BME280;56279;47.902;12.308;2023-03-21T05:03:43;95482.03;;;8.02;86.45
69171;BME280;56279;47.902;12.308;2023-03-21T05:05:46;95493.09;;;8.04;86.26
69171;BME280;56279;47.902;12.308;2023-03-21T05:07:47;95483.09;;;8.06;86.32
69171;BME280;56279;47.902;12.308;2023-03-21T05:09:49;95488.09;;;8.08;86.16
69171;BME280;56279;47.902;12.308;2023-03-21T05:11:51;95483.63;;;8.08;86.17
69171;BME280;56279;47.902;12.308;2023-03-21T05:13:53;95486.78;;;8.10;85.87
69171;BME280;56279;47.902;12.308;2023-03-21T05:15:54;95487.59;;;8.11;86.02
69171;BME280;56279;47.902;12.308;2023-03-21T05:17:55;95488.13;;;8.13;85.96
69171;BME280;56279;47.902;12.308;2023-03-21T05:19:58;95484.69;;;8.12;86.04
69171;BME280;56279;47.902;12.308;2023-03-21T05:22:04;95487.06;;;8.14;85.66
69171;BME280;56279;47.902;12.308;2023-03-21T05:24:26;95488.91;;;8.13;86.05
69171;BME280;56279;47.902;12.308;2023-03-21T05:26:28;95493.91;;;8.15;86.17
69171;BME280;56279;47.902;12.308;2023-03-21T05:28:42;95488.41;;;8.16;86.15
69171;BME280;56279;47.902;12.308;2023-03-21T05:30:46;95488.41;;;8.16;85.86
69171;BME280;56279;47.902;12.308;2023-03-21T05:32:48;95486.81;;;8.15;86.03
69171;BME280;56279;47.902;12.308;2023-03-21T05:34:51;95492.88;;;8.16;85.82
69171;BME280;56279;47.902;12.308;2023-03-21T05:36:56;95483.91;;;8.17;86.01
69171;BME280;56279;47.902;12.308;2023-03-21T05:39:02;95480.53;;;8.16;86.13
69171;BME280;56279;47.902;12.308;2023-03-21T05:41:06;95487.59;;;8.16;85.96
69171;BME280;56279;47.902;12.308;2023-03-21T05:43:07;95483.16;;;8.16;85.61
69171;BME280;56279;47.902;12.308;2023-03-21T05:45:10;95493.66;;;8.16;85.54
69171;BME280;56279;47.902;12.308;2023-03-21T05:47:14;95497.84;;;8.17;85.83
69171;BME280;56279;47.902;12.308;2023-03-21T05:49:19;95488.66;;;8.20;85.90
69171;BME280;56279;47.902;12.308;2023-03-21T05:51:26;95497.09;;;8.22;85.47
69171;BME280;56279;47.902;12.308;2023-03-21T05:53:27;95495.78;;;8.24;85.57
69171;BME280;56279;47.902;12.308;2023-03-21T05:55:29;95496.09;;;8.28;85.89
69171;BME280;56279;47.902;12.308;2023-03-21T05:57:32;95495.31;;;8.32;85.17
69171;BME280;56279;47.902;12.308;2023-03-21T05:59:41;95499.81;;;8.37;85.36
69171;BME280;56279;47.902;12.308;2023-03-21T06:01:43;95494.03;;;8.40;85.20
69171;BME280;56279;47.902;12.308;2023-03-21T06:03:49;95487.75;;;8.46;85.61
69171;BME280;56279;47.902;12.308;2023-03-21T06:05:59;95488.00;;;8.50;85.05
69171;BME280;56279;47.902;12.308;2023-03-21T06:08:08;95489.09;;;8.54;85.27
69171;BME280;56279;47.902;12.308;2023-03-21T06:10:09;95488.53;;;8.57;85.26
69171;BME280;56279;47.902;12.308;2023-03-21T06:12:13;95492.25;;;8.61;85.20
69171;BME280;56279;47.902;12.308;2023-03-21T06:14:37;95492.78;;;8.63;84.69
69171;BME280;56279;47.902;12.308;2023-03-21T06:16:56;95491.72;;;8.64;85.03
69171;BME280;56279;47.902;12.308;2023-03-21T06:18:58;95494.91;;;8.66;85.10
69171;BME280;56279;47.902;12.308;2023-03-21T06:21:26;95488.56;;;8.67;84.82
69171;BME280;56279;47.902;12.308;2023-03-21T06:23:27;95494.66;;;8.72;84.74
69171;BME280;56279;47.902;12.308;2023-03-21T06:25:29;95494.38;;;8.79;84.77
69171;BME280;56279;47.902;12.308;2023-03-21T06:27:32;95497.56;;;8.86;84.27
69171;BME280;56279;47.902;12.308;2023-03-21T06:29:33;95498.34;;;8.96;84.08
69171;BME280;56279;47.902;12.308;2023-03-21T06:31:36;95499.69;;;9.04;84.29
69171;BME280;56279;47.902;12.308;2023-03-21T06:33:39;95499.16;;;9.12;83.83
69171;BME280;56279;47.902;12.308;2023-03-21T06:35:40;95499.94;;;9.23;83.75
69171;BME280;56279;47.902;12.308;2023-03-21T06:37:41;95492.84;;;9.33;83.57
69171;BME280;56279;47.902;12.308;2023-03-21T06:39:46;95503.13;;;9.45;83.37
69171;BME280;56279;47.902;12.308;2023-03-21T06:41:47;95502.31;;;9.54;83.40
69171;BME280;56279;47.902;12.308;2023-03-21T06:43:48;95507.03;;;9.62;83.08
69171;BME280;56279;47.902;12.308;2023-03-21T06:45:50;95504.41;;;9.72;83.11
69171;BME280;56279;47.902;12.308;2023-03-21T06:47:51;95512.81;;;9.80;82.57
69171;BME280;56279;47.902;12.308;2023-03-21T06:50:07;95511.75;;;9.86;82.36
69171;BME280;56279;47.902;12.308;2023-03-21T06:52:14;95512.78;;;9.90;82.29
69171;BME280;56279;47.902;12.308;2023-03-21T06:54:16;95517.81;;;9.86;81.95
69171;BME280;56279;47.902;12.308;2023-03-21T06:56:45;95518.59;;;9.77;82.04
69171;BME280;56279;47.902;12.308;2023-03-21T06:58:53;95522.84;;;9.72;82.09
69171;BME280;56279;47.902;12.308;2023-03-21T07:01:19;95519.16;;;9.63;82.41
69171;BME280;56279;47.902;12.308;2023-03-21T07:03:34;95522.84;;;9.57;82.78
69171;BME280;56279;47.902;12.308;2023-03-21T07:05:36;95521.00;;;9.53;82.57
69171;BME280;56279;47.902;12.308;2023-03-21T07:07:38;95514.97;;;9.47;83.03
69171;BME280;56279;47.902;12.308;2023-03-21T07:09:40;95526.03;;;9.49;83.06
69171;BME280;56279;47.902;12.308;2023-03-21T07:11:41;95519.16;;;9.53;82.72
69171;BME280;56279;47.902;12.308;2023-03-21T07:13:43;95520.50;;;9.61;82.87
69171;BME280;56279;47.902;12.308;2023-03-21T07:15:45;95519.41;;;9.67;82.55
69171;BME280;56279;47.902;12.308;2023-03-21T07:17:47;95520.44;;;9.76;82.30
69171;BME280;56279;47.902;12.308;2023-03-21T07:19:48;95524.69;;;9.82;81.76
69171;BME280;56279;47.902;12.308;2023-03-21T07:21:52;95519.66;;;9.86;81.88
69171;BME280;56279;47.902;12.308;2023-03-21T07:23:53;95521.22;;;9.92;81.76
69171;BME280;56279;47.902;12.308;2023-03-21T07:25:55;95525.94;;;10.00;81.69
69171;BME280;56279;47.902;12.308;2023-03-21T07:27:56;95526.19;;;10.08;81.32
69171;BME280;56279;47.902;12.308;2023-03-21T07:29:58;95528.31;;;10.16;80.97
69171;BME280;56279;47.902;12.308;2023-03-21T07:31:59;95529.59;;;10.24;80.95
69171;BME280;56279;47.902;12.308;2023-03-21T07:34:01;95524.28;;;10.34;80.70
69171;BME280;56279;47.902;12.308;2023-03-21T07:36:02;95526.91;;;10.39;80.28
69171;BME280;56279;47.902;12.308;2023-03-21T07:38:04;95528.22;;;10.36;80.05
69171;BME280;56279;47.902;12.308;2023-03-21T07:40:07;95524.28;;;10.34;80.07
69171;BME280;56279;47.902;12.308;2023-03-21T07:42:13;95525.06;;;10.34;80.19
69171;BME280;56279;47.902;12.308;2023-03-21T07:44:14;95530.84;;;10.41;79.85
69171;BME280;56279;47.902;12.308;2023-03-21T07:46:16;95525.28;;;10.48;79.90
69171;BME280;56279;47.902;12.308;2023-03-21T07:48:17;95532.91;;;10.55;79.45
69171;BME280;56279;47.902;12.308;2023-03-21T07:50:20;95530.50;;;10.58;79.17
69171;BME280;56279;47.902;12.308;2023-03-21T07:52:21;95527.84;;;10.63;78.93
69171;BME280;56279;47.902;12.308;2023-03-21T07:54:22;95532.59;;;10.66;79.02
69171;BME280;56279;47.902;12.308;2023-03-21T07:56:23;95535.19;;;10.71;78.82
69171;BME280;56279;47.902;12.308;2023-03-21T07:58:25;95528.84;;;10.77;78.66
69171;BME280;56279;47.902;12.308;2023-03-21T08:00:27;95526.41;;;10.86;78.64
69171;BME280;56279;47.902;12.308;2023-03-21T08:02:28;95528.97;;;11.01;78.31
69171;BME280;56279;47.902;12.308;2023-03-21T08:04:29;95528.81;;;11.21;78.17
69171;BME280;56279;47.902;12.308;2023-03-21T08:06:32;95520.50;;;11.38;77.61
69171;BME280;56279;47.902;12.308;2023-03-21T08:08:33;95521.50;;;11.47;77.13
69171;BME280;56279;47.902;12.308;2023-03-21T08:10:35;95520.38;;;11.53;76.77
69171;BME280;56279;47.902;12.308;2023-03-21T08:12:36;95521.94;;;11.59;76.64
69171;BME280;56279;47.902;12.308;2023-03-21T08:14:37;95521.06;;;11.68;76.17
69171;BME280;56279;47.902;12.308;2023-03-21T08:16:39;95525.72;;;11.82;75.73
69171;BME280;56279;47.902;12.308;2023-03-21T08:18:40;95519.78;;;11.95;74.95
69171;BME280;56279;47.902;12.308;2023-03-21T08:20:42;95519.69;;;12.00;74.49
69171;BME280;56279;47.902;12.308;2023-03-21T08:22:43;95513.66;;;11.99;73.94
69171;BME280;56279;47.902;12.308;2023-03-21T08:24:46;95513.06;;;12.02;74.05
69171;BME280;56279;47.902;12.308;2023-03-21T08:26:48;95516.13;;;12.14;74.27
69171;BME280;56279;47.902;12.308;2023-03-21T08:28:49;95516.22;;;12.28;74.15
69171;BME280;56279;47.902;12.308;2023-03-21T08:30:50;95521.13;;;12.39;73.10
69171;BME280;56279;47.902;12.308;2023-03-21T08:32:55;95513.56;;;12.52;72.38
69171;BME280;56279;47.902;12.308;2023-03-21T08:34:59;95518.75;;;12.62;72.04
69171;BME280;56279;47.902;12.308;2023-03-21T08:37:01;95513.66;;;12.65;71.77
69171;BME280;56279;47.902;12.308;2023-03-21T08:39:03;95508.84;;;12.67;71.93
69171;BME280;56279;47.902;12.308;2023-03-21T08:41:07;95505.94;;;12.69;72.11
69171;BME280;56279;47.902;12.308;2023-03-21T08:43:08;95510.38;;;12.73;71.41
69171;BME280;56279;47.902;12.308;2023-03-21T08:45:10;95513.59;;;12.70;70.77
69171;BME280;56279;47.902;12.308;2023-03-21T08:47:12;95516.88;;;12.62;70.72
69171;BME280;56279;47.902;12.308;2023-03-21T08:49:13;95513.00;;;12.55;70.73
69171;BME280;56279;47.902;12.308;2023-03-21T08:51:15;95507.56;;;12.46;70.72
69171;BME280;56279;47.902;12.308;2023-03-21T08:53:16;95512.84;;;12.46;70.28
69171;BME280;56279;47.902;12.308;2023-03-21T08:55:18;95512.84;;;12.46;70.58
69171;BME280;56279;47.902;12.308;2023-03-21T08:57:20;95509.34;;;12.51;70.47
69171;BME280;56279;47.902;12.308;2023-03-21T08:59:21;95509.22;;;12.61;69.98
69171;BME280;56279;47.902;12.308;2023-03-21T09:01:22;95510.25;;;12.65;69.52
69171;BME280;56279;47.902;12.308;2023-03-21T09:03:24;95507.28;;;12.66;69.15
69171;BME280;56279;47.902;12.308;2023-03-21T09:05:27;95504.34;;;12.68;68.80
69171;BME280;56279;47.902;12.308;2023-03-21T09:07:28;95500.09;;;12.72;68.42
69171;BME280;56279;47.902;12.308;2023-03-21T09:09:34;95503.84;;;12.66;67.47
69171;BME280;56279;47.902;12.308;2023-03-21T09:11:36;95507.91;;;12.58;67.11
69171;BME280;56279;47.902;12.308;2023-03-21T09:13:37;95502.84;;;12.62;67.25
69171;BME280;56279;47.902;12.308;2023-03-21T09:15:38;95503.50;;;12.72;67.35
69171;BME280;56279;47.902;12.308;2023-03-21T09:17:40;95500.50;;;12.79;66.83
69171;BME280;56279;47.902;12.308;2023-03-21T09:19:48;95500.22;;;12.80;67.02
69171;BME280;56279;47.902;12.308;2023-03-21T09:21:50;95499.06;;;12.86;66.90
69171;BME280;56279;47.902;12.308;2023-03-21T09:23:54;95503.50;;;12.91;66.99
69171;BME280;56279;47.902;12.308;2023-03-21T09:25:56;95501.59;;;12.96;66.95
69171;BME280;56279;47.902;12.308;2023-03-21T09:28:00;95500.16;;;13.04;66.40
69171;BME280;56279;47.902;12.308;2023-03-21T09:30:05;95502.97;;;13.12;65.26
69171;BME280;56279;47.902;12.308;2023-03-21T09:32:07;95498.94;;;13.15;64.78
69171;BME280;56279;47.902;12.308;2023-03-21T09:34:09;95500.25;;;13.18;65.12
69171;BME280;56279;47.902;12.308;2023-03-21T09:36:10;95501.16;;;13.27;65.24
69171;BME280;56279;47.902;12.308;2023-03-21T09:38:14;95493.31;;;13.35;64.53
69171;BME280;56279;47.902;12.308;2023-03-21T09:42:42;95498.44;;;13.32;64.37
69171;BME280;56279;47.902;12.308;2023-03-21T09:44:53;95493.81;;;13.37;64.59
69171;BME280;56279;47.902;12.308;2023-03-21T09:49:18;95496.09;;;13.62;64.06
69171;BME280;56279;47.902;12.308;2023-03-21T09:51:25;95488.06;;;13.81;63.56
69171;BME280;56279;47.902;12.308;2023-03-21T09:53:34;95486.31;;;13.90;63.47
69171;BME280;56279;47.902;12.308;2023-03-21T09:55:40;95476.66;;;13.94;63.29
69171;BME280;56279;47.902;12.308;2023-03-21T09:57:43;95479.03;;;13.96;63.03
69171;BME280;56279;47.902;12.308;2023-03-21T09:59:47;95480.91;;;13.95;62.58
69171;BME280;56279;47.902;12.308;2023-03-21T10:01:50;95473.84;;;13.91;62.44
69171;BME280;56279;47.902;12.308;2023-03-21T10:03:53;95477.56;;;13.90;62.63
69171;BME280;56279;47.902;12.308;2023-03-21T10:05:57;95475.38;;;13.92;62.60
69171;BME280;56279;47.902;12.308;2023-03-21T10:08:08;95472.47;;;13.93;62.63
69171;BME280;56279;47.902;12.308;2023-03-21T10:10:24;95465.47;;;13.97;62.61
69171;BME280;56279;47.902;12.308;2023-03-21T10:12:26;95462.25;;;14.00;62.77
69171;BME280;56279;47.902;12.308;2023-03-21T10:14:34;95467.03;;;13.98;62.24
69171;BME280;56279;47.902;12.308;2023-03-21T10:16:57;95465.00;;;13.95;61.94
69171;BME280;56279;47.902;12.308;2023-03-21T10:19:02;95459.97;;;13.94;61.96
69171;BME280;56279;47.902;12.308;2023-03-21T10:21:04;95461.53;;;13.95;61.06
69171;BME280;56279;47.902;12.308;2023-03-21T10:23:09;95465.25;;;13.94;61.68
69171;BME280;56279;47.902;12.308;2023-03-21T10:25:16;95460.44;;;13.96;61.21
69171;BME280;56279;47.902;12.308;2023-03-21T10:27:18;95458.88;;;13.95;61.17
69171;BME280;56279;47.902;12.308;2023-03-21T10:29:24;95460.09;;;14.02;60.88
69171;BME280;56279;47.902;12.308;2023-03-21T10:31:28;95456.44;;;14.12;60.46
69171;BME280;56279;47.902;12.308;2023-03-21T10:33:33;95449.06;;;14.22;60.13
69171;BME280;56279;47.902;12.308;2023-03-21T10:35:36;95450.16;;;14.35;59.77
69171;BME280;56279;47.902;12.308;2023-03-21T10:37:39;95448.38;;;14.44;59.87
69171;BME280;56279;47.902;12.308;2023-03-21T10:39:45;95449.19;;;14.44;59.51
69171;BME280;56279;47.902;12.308;2023-03-21T10:41:48;95450.75;;;14.45;59.32
69171;BME280;56279;47.902;12.308;2023-03-21T10:44:11;95451.69;;;14.49;59.58
69171;BME280;56279;47.902;12.308;2023-03-21T10:46:19;95440.31;;;14.49;59.93
69171;BME280;56279;47.902;12.308;2023-03-21T10:48:24;95442.16;;;14.62;59.87
69171;BME280;56279;47.902;12.308;2023-03-21T10:50:28;95445.66;;;14.71;59.39
69171;BME280;56279;47.902;12.308;2023-03-21T10:52:31;95443.59;;;14.68;58.96
69171;BME280;56279;47.902;12.308;2023-03-21T10:54:33;95445.59;;;14.63;59.02
69171;BME280;56279;47.902;12.308;2023-03-21T10:56:43;95448.88;;;14.46;59.67
69171;BME280;56279;47.902;12.308;2023-03-21T10:58:48;95451.63;;;14.41;60.19
69171;BME280;56279;47.902;12.308;2023-03-21T11:00:57;95449.03;;;14.49;59.80
69171;BME280;56279;47.902;12.308;2023-03-21T11:02:59;95448.16;;;14.68;60.05
69171;BME280;56279;47.902;12.308;2023-03-21T11:05:21;95445.72;;;14.80;59.49
69171;BME280;56279;47.902;12.308;2023-03-21T11:07:27;95450.88;;;14.98;59.52
69171;BME280;56279;47.902;12.308;2023-03-21T11:09:48;95437.97;;;15.28;59.22
69171;BME280;56279;47.902;12.308;2023-03-21T11:12:00;95435.31;;;15.50;59.01
69171;BME280;56279;47.902;12.308;2023-03-21T11:14:05;95428.97;;;15.59;58.08
69171;BME280;56279;47.902;12.308;2023-03-21T11:16:10;95430.53;;;15.60;57.93
69171;BME280;56279;47.902;12.308;2023-03-21T11:18:18;95430.22;;;15.62;57.93
69171;BME280;56279;47.902;12.308;2023-03-21T11:20:20;95428.00;;;15.55;57.57
69171;BME280;56279;47.902;12.308;2023-03-21T11:22:23;95428.13;;;15.50;58.00
69171;BME280;56279;47.902;12.308;2023-03-21T11:24:27;95427.75;;;15.43;57.95
69171;BME280;56279;47.902;12.308;2023-03-21T11:26:35;95424.44;;;15.38;58.09
69171;BME280;56279;47.902;12.308;2023-03-21T11:28:39;95421.28;;;15.36;58.05
69171;BME280;56279;47.902;12.308;2023-03-21T11:30:55;95418.50;;;15.41;58.41
69171;BME280;56279;47.902;12.308;2023-03-21T11:33:00;95420.94;;;15.51;57.97
69171;BME280;56279;47.902;12.308;2023-03-21T11:35:13;95410.22;;;15.64;57.60
69171;BME280;56279;47.902;12.308;2023-03-21T11:37:43;95405.78;;;15.51;57.00